Time;durP1;ratioP1;P1;durP2;ratioP2;P2;SDS_P1;SDS_P2;PMS_P1;PMS_P2;Temp;Humidity;BMP_temperature;BMP_pressure;BME280_temperature;BME280_humidity;BME280_pressure;Samples;Min_cycle;Max_cycle;Signal;HPM_P1;HPM_P2
2024/01/05 00:02:04;;;;;;;;;1.00;1.00;;;;;10.83;70.05;99555.97;5078888;28;45287;-77
2024/01/05 00:04:30;;;;;;;;;1.00;1.00;;;;;10.91;69.50;99582.50;5077581;28;45605;-77
2024/01/05 00:06:55;;;;;;;;;2.33;1.00;;;;;10.83;69.80;99563.09;5077099;28;45557;-77
2024/01/05 00:09:20;;;;;;;;;1.00;0.67;;;;;10.27;69.91;99496.75;5076378;28;45475;-80
2024/01/05 00:11:47;;;;;;;;;2.00;2.00;;;;;10.63;69.41;99542.28;5076070;28;45275;-78
2024/01/05 00:14:13;;;;;;;;;0.00;0.00;;;;;10.90;69.90;99587.97;5058045;28;45375;-77
2024/01/05 00:16:38;;;;;;;;;3.00;1.00;;;;;10.66;69.31;99557.88;5076357;28;45402;-79
2024/01/05 00:19:04;;;;;;;;;2.67;1.00;;;;;10.63;69.72;99544.94;5079200;28;45866;-78
2024/01/05 00:21:29;;;;;;;;;2.67;0.33;;;;;10.87;69.50;99591.00;5077747;28;45370;-76
2024/01/05 00:23:55;;;;;;;;;2.00;1.00;;;;;10.90;69.80;99595.97;5076160;28;45314;-77
2024/01/05 00:26:21;;;;;;;;;3.00;1.00;;;;;10.88;69.21;99584.66;5075277;28;45321;-78
2024/01/05 00:28:48;;;;;;;;;1.00;1.00;;;;;10.98;69.16;99609.19;5074646;28;45422;-77
2024/01/05 00:31:15;;;;;;;;;3.00;1.00;;;;;10.98;69.37;99601.22;5074836;28;45555;-78
2024/01/05 00:33:41;;;;;;;;;1.00;1.00;;;;;10.84;68.96;99586.03;5075736;28;45463;-77
2024/01/05 00:36:07;;;;;;;;;2.00;1.00;;;;;10.44;69.18;99518.78;5077253;28;45351;-77
2024/01/05 00:38:33;;;;;;;;;0.33;0.33;;;;;10.98;68.88;99595.91;5076777;28;46298;-78
2024/01/05 00:40:58;;;;;;;;;0.75;0.75;;;;;10.82;68.73;99572.09;5077120;28;45369;-78
2024/01/05 00:43:24;;;;;;;;;3.67;2.00;;;;;10.29;68.81;99491.28;5057059;28;45524;-75
2024/01/05 00:45:49;;;;;;;;;2.75;0.75;;;;;10.84;69.12;99570.06;5074988;28;45619;-77
2024/01/05 00:48:14;;;;;;;;;0.50;0.50;;;;;11.09;69.41;99606.16;5075042;28;46029;-77
2024/01/05 00:50:40;;;;;;;;;4.00;2.00;;;;;11.08;68.65;99609.00;5074908;28;45474;-76
2024/01/05 00:53:06;;;;;;;;;4.00;1.00;;;;;11.06;68.52;99609.19;5075006;28;45709;-76
2024/01/05 00:55:32;;;;;;;;;3.33;1.00;;;;;10.94;68.98;99598.09;5075237;28;45489;-76
2024/01/05 00:57:58;;;;;;;;;1.00;1.00;;;;;11.09;68.40;99610.66;5056111;28;45942;-78
2024/01/05 01:00:24;;;;;;;;;2.00;0.67;;;;;11.14;68.03;99613.59;5074328;28;45702;-77
2024/01/05 01:02:50;;;;;;;;;2.00;1.25;;;;;11.08;67.46;99609.81;5074442;28;45507;-76
2024/01/05 01:05:16;;;;;;;;;3.00;0.00;;;;;11.19;66.59;99622.72;5075728;28;45394;-78
2024/01/05 01:07:41;;;;;;;;;1.67;0.67;;;;;10.66;66.53;99541.09;5075520;28;45362;-75
2024/01/05 01:10:06;;;;;;;;;0.00;0.00;;;;;10.98;65.86;99599.38;5078122;28;45470;-77
2024/01/05 01:12:32;;;;;;;;;2.00;1.00;;;;;11.17;65.65;99614.09;5078327;28;45457;-77
2024/01/05 01:14:58;;;;;;;;;0.00;0.00;;;;;10.86;64.30;99568.06;5059395;28;45570;-77
2024/01/05 01:17:23;;;;;;;;;0.00;0.00;;;;;10.88;63.62;99608.59;5077625;28;46158;-76
2024/01/05 01:19:49;;;;;;;;;1.75;1.00;;;;;11.18;63.46;99637.03;5077882;28;45715;-76
2024/01/05 01:22:14;;;;;;;;;0.50;0.00;;;;;11.16;61.56;99648.84;5060242;28;45553;-75
2024/01/05 01:24:39;;;;;;;;;0.00;0.00;;;;;11.04;61.37;99651.09;5079081;28;45370;-76
2024/01/05 01:27:05;;;;;;;;;0.00;0.00;;;;;10.87;59.66;99620.25;5077610;28;45365;-78
2024/01/05 01:29:30;;;;;;;;;0.00;0.00;;;;;11.03;59.82;99644.09;5077813;28;45593;-76
2024/01/05 01:31:55;;;;;;;;;0.00;0.00;;;;;10.92;59.83;99628.53;5077701;28;45418;-76
2024/01/05 01:34:22;;;;;;;;;0.00;0.00;;;;;10.97;58.59;99644.78;5078461;28;45337;-77
2024/01/05 01:36:47;;;;;;;;;2.00;0.00;;;;;10.45;58.35;99580.72;5078233;28;46428;-77
2024/01/05 01:39:12;;;;;;;;;0.00;0.00;;;;;10.77;58.74;99625.75;5077988;28;45302;-77
2024/01/05 01:41:38;;;;;;;;;0.00;0.00;;;;;10.17;58.76;99535.09;5077588;28;45436;-76
2024/01/05 01:44:03;;;;;;;;;0.00;0.00;;;;;10.78;58.60;99639.88;5077438;28;45324;-78
2024/01/05 01:46:31;;;;;;;;;0.00;0.00;;;;;10.66;59.23;99647.41;5077364;28;45414;-78
2024/01/05 01:48:57;;;;;;;;;0.00;0.00;;;;;10.60;58.91;99638.28;5076739;28;45437;-75
2024/01/05 01:51:23;;;;;;;;;0.00;0.00;;;;;10.58;59.13;99629.63;5076824;28;45394;-75
2024/01/05 01:53:48;;;;;;;;;0.00;0.00;;;;;10.85;59.36;99672.78;5077131;28;45255;-77
2024/01/05 01:56:14;;;;;;;;;1.25;0.00;;;;;10.69;59.48;99638.25;5077045;28;45481;-75
2024/01/05 01:58:42;;;;;;;;;0.00;0.00;;;;;10.77;59.35;99651.50;5076919;28;45620;-78
2024/01/05 02:01:08;;;;;;;;;0.00;0.00;;;;;10.91;59.29;99680.06;5076798;28;45325;-75
2024/01/05 02:03:34;;;;;;;;;0.00;0.00;;;;;10.80;59.07;99656.47;5077064;28;45395;-76
2024/01/05 02:06:00;;;;;;;;;0.00;0.00;;;;;10.96;59.31;99675.03;5076498;28;46209;-76
2024/01/05 02:08:26;;;;;;;;;0.00;0.00;;;;;10.95;58.38;99671.53;5057999;28;45419;-76
2024/01/05 02:10:52;;;;;;;;;0.00;0.00;;;;;10.98;58.56;99681.00;5076549;28;45400;-76
2024/01/05 02:13:18;;;;;;;;;0.00;0.00;;;;;10.98;58.95;99678.34;5076647;28;45540;-75
2024/01/05 02:15:43;;;;;;;;;0.00;0.00;;;;;10.68;59.22;99618.81;5057844;28;45629;-76
2024/01/05 02:18:13;;;;;;;;;0.00;0.00;;;;;11.00;58.72;99672.84;5076213;28;45454;-76
2024/01/05 02:20:38;;;;;;;;;0.00;0.00;;;;;10.99;59.10;99666.72;5075582;28;45484;-76
2024/01/05 02:23:08;;;;;;;;;0.00;0.00;;;;;11.02;59.01;99674.38;5077138;28;45293;-77
2024/01/05 02:25:33;;;;;;;;;1.00;0.75;;;;;10.82;59.41;99642.03;5058807;28;48094;-78
2024/01/05 02:27:59;;;;;;;;;0.00;0.00;;;;;10.81;58.45;99642.19;5076752;28;45323;-77
2024/01/05 02:30:24;;;;;;;;;0.00;0.00;;;;;10.78;58.57;99646.03;5076441;28;45327;-77
2024/01/05 02:32:49;;;;;;;;;0.00;0.00;;;;;10.92;58.69;99666.56;5058717;28;45620;-76
2024/01/05 02:35:15;;;;;;;;;0.00;0.00;;;;;10.96;58.11;99683.00;5076601;28;46038;-77
2024/01/05 02:37:43;;;;;;;;;0.00;0.00;;;;;10.91;58.19;99672.91;5076741;28;45601;-75
2024/01/05 02:40:11;;;;;;;;;0.00;0.00;;;;;11.01;58.71;99678.00;5076207;28;45544;-75
2024/01/05 02:42:36;;;;;;;;;0.00;0.00;;;;;11.10;58.20;99692.94;5076328;28;45664;-76
2024/01/05 02:45:02;;;;;;;;;0.00;0.00;;;;;10.98;57.96;99663.22;5075790;28;45629;-77
2024/01/05 02:47:27;;;;;;;;;0.00;0.00;;;;;10.90;57.94;99647.31;5057598;28;45394;-76
2024/01/05 02:49:52;;;;;;;;;0.00;0.00;;;;;11.15;57.68;99690.56;5075857;28;45450;-76
2024/01/05 02:52:18;;;;;;;;;0.00;0.00;;;;;11.01;57.94;99667.34;5058123;28;45568;-75
2024/01/05 02:54:44;;;;;;;;;0.00;0.00;;;;;10.82;58.22;99635.91;5076209;28;46465;-75
2024/01/05 02:57:10;;;;;;;;;0.00;0.00;;;;;11.16;58.11;99681.59;5075738;28;45501;-75
2024/01/05 02:59:35;;;;;;;;;0.00;0.00;;;;;11.09;58.13;99685.13;5075637;28;45374;-76
2024/01/05 03:02:01;;;;;;;;;1.00;0.00;;;;;11.06;58.41;99686.31;5076596;28;45433;-77
2024/01/05 03:04:26;;;;;;;;;0.00;0.00;;;;;11.10;57.94;99692.94;5075348;28;46412;-75
2024/01/05 03:06:51;;;;;;;;;0.00;0.00;;;;;11.09;57.93;99693.94;5081004;28;45271;-77
2024/01/05 03:09:17;;;;;;;;;0.00;0.00;;;;;11.08;57.32;99689.63;5078103;28;45537;-76
2024/01/05 03:11:42;;;;;;;;;0.00;0.00;;;;;10.79;57.84;99647.66;5076215;28;45533;-78
2024/01/05 03:14:08;;;;;;;;;0.00;0.00;;;;;10.78;57.45;99642.53;5075257;28;45613;-75
2024/01/05 03:16:33;;;;;;;;;0.00;0.00;;;;;10.85;58.08;99656.81;5075372;28;45498;-76
2024/01/05 03:18:58;;;;;;;;;0.00;0.00;;;;;11.06;58.49;99686.31;5075418;28;45540;-74
2024/01/05 03:21:24;;;;;;;;;0.00;0.00;;;;;11.01;57.94;99682.50;5057478;28;45536;-76
2024/01/05 03:23:49;;;;;;;;;1.00;0.00;;;;;11.07;58.29;99680.00;5075586;28;46160;-76
2024/01/05 03:26:14;;;;;;;;;0.00;0.00;;;;;11.11;57.88;99705.22;5075288;28;45399;-75
2024/01/05 03:28:40;;;;;;;;;0.67;0.00;;;;;10.89;58.37;99669.59;5075715;28;45706;-78
2024/01/05 03:31:12;;;;;;;;;0.50;0.00;;;;;11.04;58.50;99698.13;5075257;28;45579;-77
2024/01/05 03:33:37;;;;;;;;;0.00;0.00;;;;;11.12;59.09;99706.88;5075085;28;45507;-75
2024/01/05 03:36:03;;;;;;;;;0.00;0.00;;;;;11.15;59.06;99711.03;5075166;28;45643;-76
2024/01/05 03:38:29;;;;;;;;;0.00;0.00;;;;;11.17;58.50;99704.53;5056978;28;45375;-76
2024/01/05 03:40:54;;;;;;;;;0.00;0.00;;;;;11.05;58.74;99687.31;5075866;28;45405;-77
2024/01/05 03:43:19;;;;;;;;;0.00;0.00;;;;;10.97;58.97;99682.00;5076024;28;45284;-77
2024/01/05 03:45:45;;;;;;;;;0.75;0.00;;;;;11.16;59.15;99720.66;5075096;28;45244;-76
2024/01/05 03:48:10;;;;;;;;;0.00;0.00;;;;;11.17;59.18;99715.19;5075186;28;45446;-76
2024/01/05 03:50:35;;;;;;;;;0.00;0.00;;;;;11.00;58.68;99689.63;5056846;28;45497;-76
2024/01/05 03:53:01;;;;;;;;;0.00;0.00;;;;;11.13;59.71;99713.88;5075022;28;46484;-73
2024/01/05 03:55:26;;;;;;;;;1.00;0.00;;;;;11.03;60.73;99699.13;5074706;28;45355;-75
2024/01/05 03:57:51;;;;;;;;;0.00;0.00;;;;;11.05;62.14;99727.22;5074840;28;45340;-75
2024/01/05 04:00:17;;;;;;;;;0.00;0.00;;;;;10.54;62.21;99649.59;5075338;28;45764;-75
2024/01/05 04:02:42;;;;;;;;;0.00;0.00;;;;;10.71;62.75;99697.41;5075113;28;46618;-75
2024/01/05 04:05:09;;;;;;;;;0.00;0.00;;;;;10.79;62.14;99714.13;5075214;28;45498;-76
2024/01/05 04:07:35;;;;;;;;;0.00;0.00;;;;;10.68;63.18;99719.00;5075325;28;45318;-75
2024/01/05 04:10:00;;;;;;;;;0.00;0.00;;;;;10.68;63.27;99721.66;5075720;28;45645;-75
2024/01/05 04:12:25;;;;;;;;;0.00;0.00;;;;;10.65;63.20;99731.63;5074199;28;46455;-76
2024/01/05 04:14:51;;;;;;;;;0.00;0.00;;;;;10.64;63.05;99729.97;5075275;28;45466;-75
2024/01/05 04:17:16;;;;;;;;;1.33;0.00;;;;;10.45;63.22;99698.47;5076639;28;45417;-75
2024/01/05 04:19:41;;;;;;;;;0.00;0.00;;;;;10.53;63.24;99717.03;5076722;28;45537;-75
2024/01/05 04:22:07;;;;;;;;;0.00;0.00;;;;;10.53;63.55;99732.16;5075667;28;45665;-74
2024/01/05 04:24:32;;;;;;;;;0.00;0.00;;;;;10.33;62.99;99708.59;5076025;28;45578;-74
2024/01/05 04:26:58;;;;;;;;;0.00;0.00;;;;;10.36;62.01;99726.03;5074612;28;45467;-76
2024/01/05 04:29:23;;;;;;;;;1.00;0.00;;;;;9.80;62.73;99632.06;5074207;28;45802;-75
2024/01/05 04:31:48;;;;;;;;;0.00;0.00;;;;;10.20;62.16;99710.88;5073868;28;50465;-76
2024/01/05 04:34:14;;;;;;;;;0.00;0.00;;;;;10.20;62.19;99718.03;5074222;28;45369;-77
2024/01/05 04:36:39;;;;;;;;;0.00;0.00;;;;;10.23;61.77;99720.41;5074603;28;45205;-76
2024/01/05 04:39:04;;;;;;;;;0.00;0.00;;;;;10.13;62.05;99711.72;5074358;28;45458;-75
2024/01/05 04:41:30;;;;;;;;;0.67;0.00;;;;;10.17;61.93;99728.97;5074180;28;45900;-75
2024/01/05 04:43:57;;;;;;;;;0.00;0.00;;;;;10.11;62.04;99733.13;5055757;28;45476;-75
2024/01/05 04:46:22;;;;;;;;;0.00;0.00;;;;;10.05;62.32;99724.00;5077489;28;45420;-75
2024/01/05 04:48:48;;;;;;;;;0.00;0.00;;;;;9.99;61.96;99724.66;5077788;28;45379;-75
2024/01/05 04:51:13;;;;;;;;;0.00;0.00;;;;;10.00;62.63;99731.63;5077380;28;45597;-76
2024/01/05 04:53:39;;;;;;;;;0.00;0.00;;;;;9.97;62.38;99741.75;5077495;28;45398;-75
2024/01/05 04:56:04;;;;;;;;;0.50;0.00;;;;;9.88;62.55;99730.31;5077660;28;45294;-77
2024/01/05 04:58:30;;;;;;;;;0.00;0.00;;;;;9.83;62.61;99729.97;5077621;28;45542;-74
2024/01/05 05:00:55;;;;;;;;;1.33;0.00;;;;;9.92;62.86;99744.06;5076883;28;45779;-75
2024/01/05 05:03:21;;;;;;;;;0.00;0.00;;;;;9.82;62.51;99732.78;5077011;28;45272;-77
2024/01/05 05:05:46;;;;;;;;;0.33;0.00;;;;;9.74;63.16;99731.78;5077784;28;45537;-77
2024/01/05 05:08:14;;;;;;;;;0.00;0.00;;;;;9.82;63.27;99749.56;5058657;28;45820;-77
2024/01/05 05:10:40;;;;;;;;;0.00;0.00;;;;;9.79;63.75;99749.84;5076606;28;45543;-77
2024/01/05 05:13:05;;;;;;;;;0.00;0.00;;;;;9.08;63.77;99646.91;5058833;28;45304;-77
2024/01/05 05:15:31;;;;;;;;;0.00;0.00;;;;;9.73;64.86;99753.16;5077307;28;45394;-75
2024/01/05 05:17:56;;;;;;;;;0.00;0.00;;;;;9.68;64.83;99748.34;5077259;28;45586;-77
2024/01/05 05:20:21;;;;;;;;;0.00;0.00;;;;;9.53;64.92;99722.59;5076829;28;45446;-77
2024/01/05 05:22:47;;;;;;;;;0.00;0.00;;;;;9.41;65.02;99717.63;5077101;28;45522;-76
2024/01/05 05:25:12;;;;;;;;;0.00;0.00;;;;;9.58;65.00;99737.03;5077263;28;45940;-77
2024/01/05 05:27:38;;;;;;;;;0.00;0.00;;;;;9.33;64.97;99706.13;5058677;28;45475;-77
2024/01/05 05:30:06;;;;;;;;;0.00;0.00;;;;;9.02;65.14;99666.09;5076743;28;49732;-75
2024/01/05 05:32:31;;;;;;;;;0.00;0.00;;;;;9.54;65.17;99748.13;5058589;28;45500;-75
2024/01/05 05:34:57;;;;;;;;;0.00;0.00;;;;;9.51;65.02;99767.03;5075368;28;45363;-76
2024/01/05 05:37:23;;;;;;;;;0.00;0.00;;;;;9.39;65.31;99738.13;5077361;28;45501;-76
2024/01/05 05:39:49;;;;;;;;;0.00;0.00;;;;;9.38;64.93;99730.34;5076862;28;45281;-77
2024/01/05 05:42:14;;;;;;;;;0.00;0.00;;;;;9.52;65.21;99760.75;5076778;28;45387;-77
2024/01/05 05:44:40;;;;;;;;;0.00;0.00;;;;;9.02;65.49;99689.97;5076529;28;45348;-75
2024/01/05 05:47:05;;;;;;;;;1.25;0.25;;;;;9.41;65.59;99749.44;5077022;28;45445;-77
2024/01/05 05:49:30;;;;;;;;;0.25;0.00;;;;;9.46;65.59;99770.19;5076449;28;46419;-76
2024/01/05 05:51:56;;;;;;;;;0.00;0.00;;;;;9.27;65.57;99728.00;5076610;28;45478;-79
2024/01/05 05:54:21;;;;;;;;;0.00;0.00;;;;;9.33;65.41;99753.88;5076428;28;45539;-77
2024/01/05 05:56:46;;;;;;;;;0.00;0.00;;;;;9.34;65.63;99761.66;5076724;28;45794;-75
2024/01/05 05:59:12;;;;;;;;;2.00;0.00;;;;;9.21;65.55;99741.88;5076177;28;46179;-76
2024/01/05 06:01:37;;;;;;;;;1.00;1.00;;;;;9.29;66.21;99771.94;5076384;28;45558;-76
2024/01/05 06:04:05;;;;;;;;;0.00;0.00;;;;;8.85;66.18;99704.97;5076553;28;45548;-76
2024/01/05 06:06:30;;;;;;;;;1.67;0.00;;;;;9.19;66.29;99776.53;5076577;28;45646;-75
2024/01/05 06:08:56;;;;;;;;;0.00;0.00;;;;;9.04;66.33;99748.97;5075814;28;45458;-77
2024/01/05 06:11:26;;;;;;;;;0.00;0.00;;;;;9.22;66.54;99784.19;5075727;28;45367;-78
2024/01/05 06:13:51;;;;;;;;;1.00;0.00;;;;;9.21;66.76;99803.75;5076014;28;45397;-77
2024/01/05 06:16:17;;;;;;;;;0.00;0.00;;;;;9.03;66.44;99771.16;5076292;28;45501;-75
2024/01/05 06:18:42;;;;;;;;;0.00;0.00;;;;;9.06;66.94;99778.78;5075632;28;46003;-75
2024/01/05 06:21:08;;;;;;;;;0.33;0.00;;;;;9.10;67.15;99796.03;5075655;28;45590;-77
2024/01/05 06:23:34;;;;;;;;;0.00;0.00;;;;;9.05;67.55;99799.16;5076418;28;45763;-76
2024/01/05 06:25:59;;;;;;;;;0.00;0.00;;;;;8.80;67.65;99769.00;5076359;28;45692;-77
2024/01/05 06:28:24;;;;;;;;;0.00;0.00;;;;;8.94;68.17;99786.16;5076541;28;45548;-79
2024/01/05 06:30:50;;;;;;;;;1.00;0.00;;;;;9.00;68.11;99805.91;5076064;28;45278;-77
2024/01/05 06:33:15;;;;;;;;;1.00;1.00;;;;;9.00;68.42;99800.59;5076335;28;45677;-76
2024/01/05 06:35:40;;;;;;;;;0.00;0.00;;;;;9.01;68.38;99804.91;5076551;28;45446;-76
2024/01/05 06:38:06;;;;;;;;;0.00;0.00;;;;;8.45;68.54;99711.69;5075861;28;45485;-77
2024/01/05 06:40:32;;;;;;;;;0.00;0.00;;;;;8.80;68.40;99778.78;5076036;28;45414;-78
2024/01/05 06:42:58;;;;;;;;;0.00;0.00;;;;;8.93;68.65;99800.41;5076402;28;45345;-75
2024/01/05 06:45:24;;;;;;;;;1.00;1.00;;;;;8.88;68.89;99785.97;5081331;28;45301;-78
2024/01/05 06:47:50;;;;;;;;;0.33;0.00;;;;;8.71;69.07;99756.72;5076576;28;45505;-77
2024/01/05 06:50:15;;;;;;;;;0.33;0.00;;;;;8.93;68.91;99805.72;5076261;28;45567;-77
2024/01/05 06:52:41;;;;;;;;;2.67;2.33;;;;;8.64;69.07;99763.63;5076030;28;45406;-77
2024/01/05 06:55:07;;;;;;;;;0.00;0.00;;;;;8.91;69.12;99810.34;5076182;28;45650;-77
2024/01/05 06:57:35;;;;;;;;;1.00;1.00;;;;;8.89;69.17;99811.50;5076105;28;46322;-76
2024/01/05 07:00:02;;;;;;;;;0.67;0.67;;;;;8.89;69.19;99822.09;5075596;28;45507;-77
2024/01/05 07:02:28;;;;;;;;;0.00;0.00;;;;;8.91;69.09;99817.47;5076047;28;45602;-76
2024/01/05 07:04:53;;;;;;;;;2.00;1.00;;;;;8.90;69.09;99816.63;5078245;28;45411;-77
2024/01/05 07:07:19;;;;;;;;;0.00;0.00;;;;;8.71;69.01;99791.16;5077014;28;45421;-78
2024/01/05 07:09:44;;;;;;;;;0.67;0.00;;;;;8.86;69.57;99831.19;5060327;28;45320;-78
2024/01/05 07:12:10;;;;;;;;;0.00;0.00;;;;;8.71;69.27;99812.38;5059954;28;45529;-75
2024/01/05 07:14:35;;;;;;;;;2.00;0.67;;;;;8.01;69.46;99684.38;5078022;28;45488;-77
2024/01/05 07:17:00;;;;;;;;;0.00;0.00;;;;;8.80;69.96;99824.66;5076616;28;46177;-79
2024/01/05 07:19:26;;;;;;;;;0.00;0.00;;;;;8.81;69.87;99828.19;5076175;28;45444;-76
2024/01/05 07:21:51;;;;;;;;;0.33;0.33;;;;;8.84;69.55;99831.34;5076512;28;45412;-78
2024/01/05 07:24:17;;;;;;;;;2.00;0.67;;;;;8.23;69.43;99743.94;5077106;28;45611;-77
2024/01/05 07:26:43;;;;;;;;;1.33;0.33;;;;;8.68;69.65;99823.28;5077842;28;45383;-77
2024/01/05 07:29:09;;;;;;;;;0.00;0.00;;;;;8.62;69.84;99817.78;5078304;28;45394;-76
2024/01/05 07:31:34;;;;;;;;;0.00;0.00;;;;;8.76;69.95;99847.19;5078287;28;45609;-77
2024/01/05 07:34:00;;;;;;;;;0.00;0.00;;;;;8.79;69.96;99854.81;5077613;28;45360;-78
2024/01/05 07:36:25;;;;;;;;;1.00;1.00;;;;;8.60;69.60;99820.53;5077376;28;46163;-75
2024/01/05 07:38:50;;;;;;;;;1.00;0.00;;;;;8.32;69.84;99784.53;5078232;28;45528;-78
2024/01/05 07:41:17;;;;;;;;;0.00;0.00;;;;;8.54;70.02;99831.75;5077517;28;45566;-77
2024/01/05 07:43:42;;;;;;;;;1.00;1.00;;;;;8.59;70.32;99832.13;5077746;28;45448;-77
2024/01/05 07:46:07;;;;;;;;;2.33;1.67;;;;;8.68;69.98;99847.13;5076528;28;45614;-77
2024/01/05 07:48:33;;;;;;;;;0.00;0.00;;;;;8.65;70.23;99852.75;5075758;28;45413;-78
2024/01/05 07:51:03;;;;;;;;;0.33;0.33;;;;;8.59;70.45;99840.06;5075492;28;45471;-77
2024/01/05 07:53:28;;;;;;;;;3.00;1.00;;;;;8.64;70.40;99856.38;5076203;28;45419;-76
2024/01/05 07:55:54;;;;;;;;;0.00;0.00;;;;;8.55;70.45;99844.03;5075729;28;46302;-76
2024/01/05 07:58:19;;;;;;;;;0.00;0.00;;;;;8.63;70.29;99860.00;5075564;28;45350;-77
2024/01/05 08:00:45;;;;;;;;;0.00;0.00;;;;;8.60;70.43;99868.22;5075536;28;45531;-77
2024/01/05 08:03:11;;;;;;;;;0.00;0.00;;;;;8.33;70.65;99828.56;5076303;28;45509;-78
2024/01/05 08:05:36;;;;;;;;;1.00;1.00;;;;;8.29;70.71;99821.91;5060935;28;47071;-78
2024/01/05 08:08:02;;;;;;;;;0.33;0.00;;;;;8.41;70.40;99833.97;5080862;28;45382;-78
2024/01/05 08:10:27;;;;;;;;;0.00;0.00;;;;;8.64;70.60;99868.78;5060150;28;45287;-77
2024/01/05 08:12:54;;;;;;;;;2.00;2.00;;;;;8.57;70.54;99868.53;5076704;28;45323;-76
2024/01/05 08:15:19;;;;;;;;;2.00;2.00;;;;;8.43;70.43;99851.41;5075554;28;46061;-78
2024/01/05 08:17:45;;;;;;;;;1.00;1.00;;;;;8.52;70.22;99854.94;5074783;28;45291;-77
2024/01/05 08:20:12;;;;;;;;;2.00;0.00;;;;;8.71;70.12;99875.97;5057286;28;45379;-79
2024/01/05 08:22:37;;;;;;;;;0.00;0.00;;;;;7.77;70.11;99737.88;5076283;28;45490;-78
2024/01/05 08:25:03;;;;;;;;;0.00;0.00;;;;;7.79;70.13;99727.16;5075505;28;46146;-77
2024/01/05 08:27:29;;;;;;;;;1.00;1.00;;;;;8.47;70.39;99851.91;5075491;28;45434;-77
2024/01/05 08:29:55;;;;;;;;;4.67;1.00;;;;;8.34;70.37;99830.28;5075248;28;45610;-78
2024/01/05 08:32:20;;;;;;;;;0.00;0.00;;;;;8.68;70.09;99878.91;5076720;28;45495;-78
2024/01/05 08:34:46;;;;;;;;;1.67;1.67;;;;;7.83;70.14;99729.34;5074951;28;45487;-78
2024/01/05 08:37:11;;;;;;;;;0.00;0.00;;;;;8.80;69.96;99882.97;5057365;28;45412;-77
2024/01/05 08:39:39;;;;;;;;;1.00;1.00;;;;;8.72;70.03;99861.72;5075960;28;45517;-76
2024/01/05 08:42:08;;;;;;;;;2.67;1.00;;;;;8.68;69.45;99854.25;5075536;28;45533;-79
2024/01/05 08:44:35;;;;;;;;;1.00;1.00;;;;;8.53;69.63;99798.31;5075702;28;46439;-78
2024/01/05 08:47:01;;;;;;;;;4.67;1.00;;;;;8.48;68.51;99750.28;5077112;28;45431;-78
2024/01/05 08:49:26;;;;;;;;;0.67;0.67;;;;;9.24;67.64;99835.25;5059246;28;45367;-79
2024/01/05 08:51:52;;;;;;;;;1.00;1.00;;;;;9.30;66.56;99794.81;5057618;28;45363;-79
2024/01/05 08:54:18;;;;;;;;;1.00;1.00;;;;;10.21;65.70;99897.69;5075511;28;45466;-78
2024/01/05 08:56:44;;;;;;;;;0.00;0.00;;;;;10.58;64.82;99876.81;5076091;28;45334;-77
2024/01/05 08:59:10;;;;;;;;;2.00;1.00;;;;;10.98;61.81;99844.06;5058121;28;45567;-79
2024/01/05 09:01:36;;;;;;;;;2.67;1.00;;;;;12.20;59.41;99893.41;5076036;28;45451;-78
2024/01/05 09:04:02;;;;;;;;;1.00;1.00;;;;;12.86;57.24;99851.97;5075471;28;45567;-78
2024/01/05 09:06:28;;;;;;;;;0.50;0.50;;;;;13.92;54.75;99882.88;5075221;28;45453;-79
2024/01/05 09:08:54;;;;;;;;;0.00;0.00;;;;;14.06;53.69;99891.91;5057935;28;45509;-78
2024/01/05 09:11:19;;;;;;;;;2.00;2.00;;;;;14.71;51.87;99891.81;5076763;28;45436;-78
2024/01/05 09:13:44;;;;;;;;;2.00;1.67;;;;;14.72;51.28;99850.66;5057655;28;45630;-78
2024/01/05 09:16:10;;;;;;;;;1.00;1.00;;;;;14.96;50.91;99905.63;5074658;28;45318;-77
2024/01/05 09:18:37;;;;;;;;;2.33;2.33;;;;;14.06;51.86;99889.22;5075091;28;45378;-78
2024/01/05 09:21:06;;;;;;;;;1.75;1.75;;;;;13.49;53.96;99921.97;5074976;28;45401;-78
2024/01/05 09:23:32;;;;;;;;;1.00;1.00;;;;;12.85;55.24;99866.31;5074696;28;46206;-77
2024/01/05 09:25:57;;;;;;;;;6.67;5.00;;;;;12.81;55.88;99915.69;5075118;28;45491;-78
2024/01/05 09:28:23;;;;;;;;;1.00;1.00;;;;;12.61;56.61;99930.50;5075718;28;45367;-78
2024/01/05 09:30:48;;;;;;;;;1.00;1.00;;;;;12.41;57.40;99928.31;5078172;28;45485;-77
2024/01/05 09:33:16;;;;;;;;;2.33;2.33;;;;;12.09;57.81;99901.81;5078394;28;45467;-79
2024/01/05 09:35:42;;;;;;;;;3.50;2.00;;;;;12.18;58.08;99932.75;5059837;28;45505;-80
2024/01/05 09:38:07;;;;;;;;;1.00;1.00;;;;;11.97;58.07;99919.19;5079267;28;45382;-80
2024/01/05 09:40:33;;;;;;;;;1.00;1.00;;;;;11.58;58.51;99872.03;5060694;28;45493;-78
2024/01/05 09:43:02;;;;;;;;;1.00;1.00;;;;;11.51;59.12;99889.69;5081179;28;45472;-79
2024/01/05 09:45:30;;;;;;;;;2.33;2.33;;;;;10.96;59.21;99819.47;5078533;28;45466;-79
2024/01/05 09:47:57;;;;;;;;;4.00;3.00;;;;;11.47;59.28;99923.00;5078687;28;45298;-78
2024/01/05 09:50:23;;;;;;;;;3.00;2.00;;;;;11.69;59.46;99967.53;5079017;28;45294;-78
2024/01/05 09:52:49;;;;;;;;;3.00;2.00;;;;;11.63;59.57;99959.41;5078556;28;46241;-76
2024/01/05 09:55:15;;;;;;;;;2.33;2.00;;;;;11.10;59.99;99888.94;5080179;28;45509;-77
2024/01/05 09:57:44;;;;;;;;;2.67;1.67;;;;;11.45;60.19;99967.56;5085796;28;45413;-78
2024/01/05 10:00:14;;;;;;;;;1.00;1.00;;;;;11.26;59.76;99952.78;5083990;28;45532;-79
2024/01/05 10:02:57;;;;;;;;;2.33;1.33;;;;;10.88;59.72;99909.06;5082423;28;45514;-77
2024/01/05 10:05:23;;;;;;;;;1.00;1.00;;;;;11.02;60.17;99923.56;5082944;28;45295;-78
2024/01/05 10:07:48;;;;;;;;;5.67;3.67;;;;;11.24;60.83;99971.59;5080787;28;45330;-78
2024/01/05 10:10:14;;;;;;;;;2.33;2.33;;;;;11.03;60.95;99942.00;5060783;28;45664;-80
2024/01/05 10:12:40;;;;;;;;;2.00;1.00;;;;;10.33;60.27;99843.25;5062344;28;46764;-79
2024/01/05 10:15:06;;;;;;;;;1.75;1.75;;;;;10.86;60.91;99956.28;5083112;28;45317;-78
2024/01/05 10:17:34;;;;;;;;;1.00;1.00;;;;;10.69;60.75;99936.81;5080738;28;45225;-79
2024/01/05 10:20:20;;;;;;;;;4.33;2.00;;;;;10.91;61.15;99975.22;5079523;28;45593;-79
2024/01/05 10:22:48;;;;;;;;;2.33;1.00;;;;;10.91;61.41;99977.88;5079163;28;46271;-80
2024/01/05 10:25:21;;;;;;;;;2.00;2.00;;;;;10.81;61.15;99961.25;5080911;28;45491;-79
2024/01/05 10:27:48;;;;;;;;;1.00;1.00;;;;;10.87;61.52;99957.94;5079173;28;45275;-78
2024/01/05 10:30:28;;;;;;;;;0.50;0.50;;;;;10.85;61.22;99962.59;5061001;28;45498;-79
2024/01/05 10:33:02;;;;;;;;;1.33;1.00;;;;;10.84;61.63;99958.28;5078760;28;45502;-78
2024/01/05 10:35:29;;;;;;;;;2.67;1.00;;;;;9.34;61.08;99713.09;5061415;28;45475;-78
2024/01/05 10:38:11;;;;;;;;;1.00;1.00;;;;;10.83;61.68;99959.28;5078199;28;45660;-79
2024/01/05 10:40:37;;;;;;;;;6.00;4.00;;;;;10.82;61.61;99960.28;5077907;28;45453;-77
2024/01/05 10:43:16;;;;;;;;;2.00;2.00;;;;;10.34;61.83;99888.25;5077200;28;45566;-79
2024/01/05 10:45:42;;;;;;;;;5.33;5.33;;;;;10.09;61.50;99835.22;5077289;28;45323;-79
2024/01/05 10:48:09;;;;;;;;;1.67;1.67;;;;;10.84;61.54;99955.63;5077660;28;45524;-77
2024/01/05 10:50:37;;;;;;;;;5.00;5.00;;;;;10.54;61.49;99904.72;5059608;28;45517;-78
2024/01/05 10:53:04;;;;;;;;;0.00;0.00;;;;;10.86;61.66;99953.63;5078943;28;45645;-78
2024/01/05 10:55:33;;;;;;;;;4.00;3.00;;;;;10.71;61.27;99923.34;5062087;28;45669;-80
2024/01/05 10:57:59;;;;;;;;;1.00;0.00;;;;;10.32;61.35;99868.16;5066285;28;45583;-81
2024/01/05 11:00:26;;;;;;;;;1.67;1.00;;;;;10.87;61.22;99948.13;5086434;28;45360;-79
2024/01/05 11:03:08;;;;;;;;;2.00;1.00;;;;;10.74;61.27;99923.03;5080535;28;46093;-78
2024/01/05 11:05:34;;;;;;;;;1.67;1.33;;;;;10.86;61.75;99941.16;5059902;28;45455;-77
2024/01/05 11:08:02;;;;;;;;;1.00;1.00;;;;;10.85;61.54;99933.34;5078242;28;45244;-75
2024/01/05 11:10:39;;;;;;;;;1.67;1.67;;;;;10.95;61.63;99945.47;5077326;28;45621;-77
2024/01/05 11:13:32;;;;;;;;;2.00;2.00;;;;;10.98;61.09;99947.78;5077864;28;45600;-77
2024/01/05 11:15:57;;;;;;;;;1.50;1.50;;;;;11.02;61.03;99950.16;5077779;28;45485;-80
2024/01/05 11:18:49;;;;;;;;;1.00;1.00;;;;;11.06;61.42;99960.28;5078952;28;45298;-78
2024/01/05 11:21:19;;;;;;;;;0.00;0.00;;;;;11.14;60.97;99959.44;5068738;28;45336;-79
2024/01/05 11:23:46;;;;;;;;;0.67;0.67;;;;;11.12;60.01;99948.13;5078721;28;46196;-78
2024/01/05 11:26:30;;;;;;;;;3.33;3.00;;;;;11.26;60.51;99947.47;5080930;28;45529;-78
2024/01/05 11:28:55;;;;;;;;;0.67;0.67;;;;;11.18;59.76;99929.66;5081260;28;45339;-79
2024/01/05 11:31:46;;;;;;;;;1.67;1.67;;;;;11.45;60.28;99948.94;5078520;28;45474;-80
2024/01/05 11:34:37;;;;;;;;;3.00;1.33;;;;;11.58;59.02;99951.91;5040332;28;48224;-78